地図

経路データ

SID SEASON NUMBER BASIN SUBBASIN NAME ISO_TIME NATURE LAT LON WMO_WIND WMO_PRES WMO_AGENCY TRACK_TYPE DIST2LAND LANDFALL IFLAG USA_AGENCY USA_ATCF_ID USA_LAT USA_LON USA_RECORD USA_STATUS USA_WIND USA_PRES USA_SSHS USA_R34_NE USA_R34_SE USA_R34_SW USA_R34_NW USA_R50_NE USA_R50_SE USA_R50_SW USA_R50_NW USA_R64_NE USA_R64_SE USA_R64_SW USA_R64_NW USA_POCI USA_ROCI USA_RMW USA_EYE TOKYO_LAT TOKYO_LON TOKYO_GRADE TOKYO_WIND TOKYO_PRES TOKYO_R50_DIR TOKYO_R50_LONG TOKYO_R50_SHORT TOKYO_R30_DIR TOKYO_R30_LONG TOKYO_R30_SHORT TOKYO_LAND CMA_LAT CMA_LON CMA_CAT CMA_WIND CMA_PRES HKO_LAT HKO_LON HKO_CAT HKO_WIND HKO_PRES NEWDELHI_LAT NEWDELHI_LON NEWDELHI_GRADE NEWDELHI_WIND NEWDELHI_PRES NEWDELHI_CI NEWDELHI_DP NEWDELHI_POCI REUNION_LAT REUNION_LON REUNION_TYPE REUNION_WIND REUNION_PRES REUNION_TNUM REUNION_CI REUNION_RMW REUNION_R34_NE REUNION_R34_SE REUNION_R34_SW REUNION_R34_NW REUNION_R50_NE REUNION_R50_SE REUNION_R50_SW REUNION_R50_NW REUNION_R64_NE REUNION_R64_SE REUNION_R64_SW REUNION_R64_NW BOM_LAT BOM_LON BOM_TYPE BOM_WIND BOM_PRES BOM_TNUM BOM_CI BOM_RMW BOM_R34_NE BOM_R34_SE BOM_R34_SW BOM_R34_NW BOM_R50_NE BOM_R50_SE BOM_R50_SW BOM_R50_NW BOM_R64_NE BOM_R64_SE BOM_R64_SW BOM_R64_NW BOM_ROCI BOM_POCI BOM_EYE BOM_POS_METHOD BOM_PRES_METHOD NADI_LAT NADI_LON NADI_CAT NADI_WIND NADI_PRES WELLINGTON_LAT WELLINGTON_LON WELLINGTON_WIND WELLINGTON_PRES DS824_LAT DS824_LON DS824_STAGE DS824_WIND DS824_PRES TD9636_LAT TD9636_LON TD9636_STAGE TD9636_WIND TD9636_PRES TD9635_LAT TD9635_LON TD9635_WIND TD9635_PRES TD9635_ROCI NEUMANN_LAT NEUMANN_LON NEUMANN_CLASS NEUMANN_WIND NEUMANN_PRES MLC_LAT MLC_LON MLC_CLASS MLC_WIND MLC_PRES USA_GUST BOM_GUST BOM_GUST_PER REUNION_GUST REUNION_GUST_PER USA_SEAHGT USA_SEARAD_NE USA_SEARAD_SE USA_SEARAD_SW USA_SEARAD_NW STORM_SPEED STORM_DIR
1936254N19266 1936 50 NA GM NOT_NAMED 1936-09-09 12:00:00 TS 19.0000 -94.0000 25 hurdat_atl main 79 79 O_____________ hurdat_atl AL141936 19.0000 -94.0000 TD 25 -1 1 270
1936254N19266 1936 50 NA GM NOT_NAMED 1936-09-09 15:00:00 TS 19.0000 -94.0500 main 79 81 P_____________ AL141936 19.0000 -94.0500 TD 25 -1 1 270
1936254N19266 1936 50 NA GM NOT_NAMED 1936-09-09 18:00:00 TS 19.0000 -94.1000 25 hurdat_atl main 81 81 O_____________ hurdat_atl AL141936 19.0000 -94.1000 TD 25 -1 1 270
1936254N19266 1936 50 NA GM NOT_NAMED 1936-09-09 21:00:00 TS 19.0000 -94.1500 main 81 84 P_____________ AL141936 19.0000 -94.1500 TD 25 -1 1 270
1936254N19266 1936 50 NA GM NOT_NAMED 1936-09-10 00:00:00 TS 19.0000 -94.2000 25 hurdat_atl main 84 84 O_____________ hurdat_atl AL141936 19.0000 -94.2000 TD 25 -1 1 270
1936254N19266 1936 50 NA GM NOT_NAMED 1936-09-10 03:00:00 TS 19.0000 -94.2500 main 85 85 P_____________ AL141936 19.0000 -94.2500 TD 27 -1 1 270
1936254N19266 1936 50 NA GM NOT_NAMED 1936-09-10 06:00:00 TS 19.0000 -94.3000 30 hurdat_atl main 85 85 O_____________ hurdat_atl AL141936 19.0000 -94.3000 TD 30 -1 1 270
1936254N19266 1936 50 NA GM NOT_NAMED 1936-09-10 09:00:00 TS 19.0000 -94.3500 main 77 77 P_____________ AL141936 19.0000 -94.3500 TD 30 -1 1 270
1936254N19266 1936 50 NA GM NOT_NAMED 1936-09-10 12:00:00 TS 19.0000 -94.4000 30 hurdat_atl main 77 77 O_____________ hurdat_atl AL141936 19.0000 -94.4000 TD 30 -1 1 266
1936254N19266 1936 50 NA GM NOT_NAMED 1936-09-10 15:00:00 TS 18.9925 -94.4500 main 69 69 P_____________ AL141936 18.9925 -94.4500 TD 30 -1 1 270
1936254N19266 1936 50 NA GM NOT_NAMED 1936-09-10 18:00:00 TS 19.0000 -94.5000 30 hurdat_atl main 69 69 O_____________ hurdat_atl AL141936 19.0000 -94.5000 TD 30 -1 1 294
1936254N19266 1936 50 NA GM NOT_NAMED 1936-09-10 21:00:00 TS 19.0350 -94.5500 main 61 61 P_____________ AL141936 19.0350 -94.5500 TD 32 -1 1 317
1936254N19266 1936 50 NA GM NOT_NAMED 1936-09-11 00:00:00 TS 19.1000 -94.6000 35 hurdat_atl main 70 70 O_____________ hurdat_atl AL141936 19.1000 -94.6000 TS 35 0 2 326
1936254N19266 1936 50 NA GM NOT_NAMED 1936-09-11 03:00:00 TS 19.1850 -94.6575 main 74 74 P_____________ AL141936 19.1850 -94.6575 TS 35 0 2 333
1936254N19266 1936 50 NA GM NOT_NAMED 1936-09-11 06:00:00 TS 19.3000 -94.7000 35 hurdat_atl main 84 84 O_____________ hurdat_atl AL141936 19.3000 -94.7000 TS 35 0 3 346
1936254N19266 1936 50 NA GM NOT_NAMED 1936-09-11 09:00:00 TS 19.4275 -94.7150 main 94 94 P_____________ AL141936 19.4275 -94.7150 TS 35 0 3 0
1936254N19266 1936 50 NA GM NOT_NAMED 1936-09-11 12:00:00 TS 19.6000 -94.7000 35 hurdat_atl main 113 113 O_____________ hurdat_atl AL141936 19.6000 -94.7000 TS 35 0 4 8
1936254N19266 1936 50 NA GM NOT_NAMED 1936-09-11 15:00:00 TS 19.8275 -94.6575 main 133 133 P_____________ AL141936 19.8275 -94.6575 TS 37 0 5 11
1936254N19266 1936 50 NA GM NOT_NAMED 1936-09-11 18:00:00 TS 20.1000 -94.6000 40 hurdat_atl main 168 168 O_____________ hurdat_atl AL141936 20.1000 -94.6000 TS 40 0 6 11
1936254N19266 1936 50 NA GM NOT_NAMED 1936-09-11 21:00:00 TS 20.3775 -94.5425 main 203 203 P_____________ AL141936 20.3775 -94.5425 TS 40 0 6 9
1936254N19266 1936 50 NA GM NOT_NAMED 1936-09-12 00:00:00 TS 20.7000 -94.5000 40 hurdat_atl main 217 217 O_____________ hurdat_atl AL141936 20.7000 -94.5000 TS 40 0 7 5
1936254N19266 1936 50 NA GM NOT_NAMED 1936-09-12 03:00:00 TS 21.0775 -94.4850 main 239 239 P_____________ AL141936 21.0775 -94.4850 TS 40 0 8 1
1936254N19266 1936 50 NA GM NOT_NAMED 1936-09-12 06:00:00 TS 21.5000 -94.5000 40 hurdat_atl main 266 266 O_____________ hurdat_atl AL141936 21.5000 -94.5000 TS 40 0 9 358
1936254N19266 1936 50 NA GM NOT_NAMED 1936-09-12 09:00:00 TS 21.9349 -94.5128 main 291 286 P_____________ AL141936 21.9349 -94.5128 TS 42 0 9 355
1936254N19266 1936 50 NA GM NOT_NAMED 1936-09-12 12:00:00 TS 22.4000 -94.6000 45 1001 hurdat_atl main 292 290 O_____________ hurdat_atl AL141936 22.4000 -94.6000 TS 45 1001 0 10 344
1936254N19266 1936 50 NA GM NOT_NAMED 1936-09-12 15:00:00 TS 22.8925 -94.8050 main 295 275 P_____________ AL141936 22.8925 -94.8050 TS 45 0 11 335
1936254N19266 1936 50 NA GM NOT_NAMED 1936-09-12 18:00:00 TS 23.4000 -95.1000 45 hurdat_atl main 275 242 O_____________ hurdat_atl AL141936 23.4000 -95.1000 TS 45 0 12 331
1936254N19266 1936 50 NA GM NOT_NAMED 1936-09-12 21:00:00 TS 23.9075 -95.4276 main 242 184 P_____________ AL141936 23.9075 -95.4276 TS 45 0 12 327
1936254N19266 1936 50 NA GM NOT_NAMED 1936-09-13 00:00:00 TS 24.4000 -95.8000 45 hurdat_atl main 184 128 O_____________ hurdat_atl AL141936 24.4000 -95.8000 TS 45 0 12 324
1936254N19266 1936 50 NA GM NOT_NAMED 1936-09-13 03:00:00 TS 24.8574 -96.1928 main 123 68 P_____________ AL141936 24.8574 -96.1928 TS 45 0 12 321
1936254N19266 1936 50 NA GM NOT_NAMED 1936-09-13 06:00:00 TS 25.3000 -96.6000 45 hurdat_atl main 68 20 O_____________ hurdat_atl AL141936 25.3000 -96.6000 TS 45 0 12 321
1936254N19266 1936 50 NA GM NOT_NAMED 1936-09-13 09:00:00 TS 25.7649 -97.0076 main 20 0 P_____________ AL141936 25.7649 -97.0076 TS 45 0 12 321
1936254N19266 1936 50 NA NA NOT_NAMED 1936-09-13 12:00:00 TS 26.2000 -97.4000 45 998 hurdat_atl main 0 0 O_____________ hurdat_atl AL141936 26.2000 -97.4000 TS 45 998 0 11 320
1936254N19266 1936 50 NA NA NOT_NAMED 1936-09-13 15:00:00 TS 26.5724 -97.7653 main 0 0 P_____________ AL141936 26.5724 -97.7653 TS 40 0 9 318
1936254N19266 1936 50 NA NA NOT_NAMED 1936-09-13 18:00:00 TS 26.9000 -98.1000 35 hurdat_atl main 0 0 O_____________ hurdat_atl AL141936 26.9000 -98.1000 TS 35 0 9 318
1936254N19266 1936 50 NA NA NOT_NAMED 1936-09-13 21:00:00 TS 27.2149 -98.4077 main 0 0 P_____________ AL141936 27.2149 -98.4077 TS 32 -1 8 318
1936254N19266 1936 50 NA NA NOT_NAMED 1936-09-14 00:00:00 TS 27.5000 -98.7000 30 hurdat_atl main 0 0 O_____________ hurdat_atl AL141936 27.5000 -98.7000 TD 30 -1 8 316
1936254N19266 1936 50 NA NA NOT_NAMED 1936-09-14 03:00:00 TS 27.7649 -99.0001 main 0 0 P_____________ AL141936 27.7649 -99.0001 TD 30 -1 7 313
1936254N19266 1936 50 NA NA NOT_NAMED 1936-09-14 06:00:00 TS 28.0000 -99.3000 30 hurdat_atl main 0 0 O_____________ hurdat_atl AL141936 28.0000 -99.3000 TD 30 -1 7 310
1936254N19266 1936 50 NA NA NOT_NAMED 1936-09-14 09:00:00 TS 28.2074 -99.5927 main 0 0 P_____________ AL141936 28.2074 -99.5927 TD 30 -1 7 307
1936254N19266 1936 50 NA NA NOT_NAMED 1936-09-14 12:00:00 TS 28.4000 -99.9000 30 hurdat_atl main 0 0 O_____________ hurdat_atl AL141936 28.4000 -99.9000 TD 30 -1 7 304
1936254N19266 1936 50 NA NA NOT_NAMED 1936-09-14 15:00:00 TS 28.5977 -100.240 main 0 0 P_____________ AL141936 28.5977 -100.240 TD 27 -1 7 303
1936254N19266 1936 50 NA NA NOT_NAMED 1936-09-14 18:00:00 TS 28.8000 -100.600 25 hurdat_atl main 0 O_____________ hurdat_atl AL141936 28.8000 -100.600 TD 25 -1 8 303

IBTrACS Databaseについて

本データベースは、米国NOAAが公開する1842年以降の世界の熱帯低気圧のベストトラックデータアーカイブInternational Best Track Archive for Climate Stewardship (IBTrACS)を、ウェブで閲覧しやすい形式に変換したものです。

最終更新日:2021-12-01